Ops, North Dakota
Current Conditions -  °F | °C
As of 7:15 PM on Sunday 23 Nov 2014 (Local Time) from KGAF Reporting Station
Light Snow Light Snow  
Wind Chill:   Ceiling: 1300
Heat Index: 18°   Visibility: 8mi
Dew Point: 14°   Wind: 21mph
Humidity: 86%   Direction: 330°NNW
Pressure: 29.58"   Gusts: 36mph
Location:  48.2362°N, 97.4515°W
Report Text: KGAF 240115Z AUTO 33018G31KT 8SM -SN OVC013 M08/M10 A2958 RMK AO2
Loading
Personal Weather Stations






























Interactive Weather Map New forecast layout! Learn more

10-Day Weather Forecast

Advertisements
Track Severe Weather on mobile